sensor_id;sensor_type;location;lat;lon;timestamp;P1;durP1;ratioP1;P2;durP2;ratioP2
36009;SDS011;22076;52.182;5.404;2022-08-06T00:01:56;6.65;;;2.03;;
36009;SDS011;22076;52.182;5.404;2022-08-06T00:04:23;2.17;;;1.00;;
36009;SDS011;22076;52.182;5.404;2022-08-06T00:06:49;7.05;;;1.15;;
36009;SDS011;22076;52.182;5.404;2022-08-06T00:09:16;7.30;;;1.33;;
36009;SDS011;22076;52.182;5.404;2022-08-06T00:11:44;4.03;;;1.00;;
36009;SDS011;22076;52.182;5.404;2022-08-06T00:14:13;3.88;;;1.23;;
36009;SDS011;22076;52.182;5.404;2022-08-06T00:16:40;3.30;;;1.27;;
36009;SDS011;22076;52.182;5.404;2022-08-06T00:19:06;4.93;;;1.08;;
36009;SDS011;22076;52.182;5.404;2022-08-06T00:21:33;5.53;;;1.42;;
36009;SDS011;22076;52.182;5.404;2022-08-06T00:23:59;6.97;;;1.17;;
36009;SDS011;22076;52.182;5.404;2022-08-06T00:26:26;5.25;;;1.45;;
36009;SDS011;22076;52.182;5.404;2022-08-06T00:28:55;2.60;;;0.88;;
36009;SDS011;22076;52.182;5.404;2022-08-06T00:31:21;4.63;;;0.90;;
36009;SDS011;22076;52.182;5.404;2022-08-06T00:33:48;4.32;;;1.30;;
36009;SDS011;22076;52.182;5.404;2022-08-06T00:36:14;2.85;;;1.10;;
36009;SDS011;22076;52.182;5.404;2022-08-06T00:38:41;5.78;;;1.33;;
36009;SDS011;22076;52.182;5.404;2022-08-06T00:41:08;3.17;;;1.13;;
36009;SDS011;22076;52.182;5.404;2022-08-06T00:43:34;3.45;;;1.17;;
36009;SDS011;22076;52.182;5.404;2022-08-06T00:46:02;3.80;;;1.25;;
36009;SDS011;22076;52.182;5.404;2022-08-06T00:48:29;3.80;;;1.35;;
36009;SDS011;22076;52.182;5.404;2022-08-06T00:50:56;2.28;;;1.00;;
36009;SDS011;22076;52.182;5.404;2022-08-06T00:53:22;3.15;;;1.00;;
36009;SDS011;22076;52.182;5.404;2022-08-06T00:55:49;6.18;;;1.40;;
36009;SDS011;22076;52.182;5.404;2022-08-06T00:58:15;2.95;;;1.10;;
36009;SDS011;22076;52.182;5.404;2022-08-06T01:00:42;8.15;;;1.27;;
36009;SDS011;22076;52.182;5.404;2022-08-06T01:03:10;3.08;;;1.10;;
36009;SDS011;22076;52.182;5.404;2022-08-06T01:05:37;5.22;;;1.40;;
36009;SDS011;22076;52.182;5.404;2022-08-06T01:08:03;2.13;;;0.90;;
36009;SDS011;22076;52.182;5.404;2022-08-06T01:10:30;5.75;;;1.20;;
36009;SDS011;22076;52.182;5.404;2022-08-06T01:12:57;5.93;;;1.30;;
36009;SDS011;22076;52.182;5.404;2022-08-06T01:15:23;2.83;;;0.98;;
36009;SDS011;22076;52.182;5.404;2022-08-06T01:17:52;2.60;;;1.10;;
36009;SDS011;22076;52.182;5.404;2022-08-06T01:20:34;3.63;;;1.25;;
36009;SDS011;22076;52.182;5.404;2022-08-06T01:23:15;3.83;;;1.30;;
36009;SDS011;22076;52.182;5.404;2022-08-06T01:25:59;8.18;;;1.50;;
36009;SDS011;22076;52.182;5.404;2022-08-06T01:28:34;4.30;;;1.10;;
36009;SDS011;22076;52.182;5.404;2022-08-06T01:31:02;3.63;;;1.35;;
36009;SDS011;22076;52.182;5.404;2022-08-06T01:33:31;5.28;;;1.48;;
36009;SDS011;22076;52.182;5.404;2022-08-06T01:36:01;4.80;;;1.48;;
36009;SDS011;22076;52.182;5.404;2022-08-06T01:38:30;2.03;;;1.00;;
36009;SDS011;22076;52.182;5.404;2022-08-06T01:40:59;4.13;;;1.00;;
36009;SDS011;22076;52.182;5.404;2022-08-06T01:43:29;4.00;;;1.20;;
36009;SDS011;22076;52.182;5.404;2022-08-06T01:45:59;3.85;;;1.30;;
36009;SDS011;22076;52.182;5.404;2022-08-06T01:48:26;6.38;;;1.38;;
36009;SDS011;22076;52.182;5.404;2022-08-06T01:50:55;4.72;;;1.08;;
36009;SDS011;22076;52.182;5.404;2022-08-06T01:53:27;4.50;;;1.27;;
36009;SDS011;22076;52.182;5.404;2022-08-06T01:55:57;5.10;;;1.50;;
36009;SDS011;22076;52.182;5.404;2022-08-06T01:58:27;3.03;;;1.05;;
36009;SDS011;22076;52.182;5.404;2022-08-06T02:00:56;3.13;;;1.23;;
36009;SDS011;22076;52.182;5.404;2022-08-06T02:03:24;3.85;;;1.10;;
36009;SDS011;22076;52.182;5.404;2022-08-06T02:05:53;3.97;;;1.08;;
36009;SDS011;22076;52.182;5.404;2022-08-06T02:08:21;3.15;;;1.40;;
36009;SDS011;22076;52.182;5.404;2022-08-06T02:10:49;4.40;;;1.08;;
36009;SDS011;22076;52.182;5.404;2022-08-06T02:13:16;3.70;;;1.20;;
36009;SDS011;22076;52.182;5.404;2022-08-06T02:15:44;4.70;;;1.02;;
36009;SDS011;22076;52.182;5.404;2022-08-06T02:18:12;2.72;;;0.90;;
36009;SDS011;22076;52.182;5.404;2022-08-06T02:20:40;3.30;;;1.30;;
36009;SDS011;22076;52.182;5.404;2022-08-06T02:23:11;4.35;;;1.20;;
36009;SDS011;22076;52.182;5.404;2022-08-06T02:25:42;2.92;;;1.30;;
36009;SDS011;22076;52.182;5.404;2022-08-06T02:28:11;2.30;;;1.15;;
36009;SDS011;22076;52.182;5.404;2022-08-06T02:30:40;4.70;;;1.35;;
36009;SDS011;22076;52.182;5.404;2022-08-06T02:33:09;4.88;;;1.33;;
36009;SDS011;22076;52.182;5.404;2022-08-06T02:35:39;2.58;;;1.33;;
36009;SDS011;22076;52.182;5.404;2022-08-06T02:38:11;4.78;;;2.00;;
36009;SDS011;22076;52.182;5.404;2022-08-06T02:40:41;4.18;;;1.58;;
36009;SDS011;22076;52.182;5.404;2022-08-06T02:43:10;2.88;;;1.30;;
36009;SDS011;22076;52.182;5.404;2022-08-06T02:45:42;2.22;;;1.17;;
36009;SDS011;22076;52.182;5.404;2022-08-06T02:48:11;2.67;;;1.35;;
36009;SDS011;22076;52.182;5.404;2022-08-06T02:50:43;5.07;;;1.40;;
36009;SDS011;22076;52.182;5.404;2022-08-06T02:53:13;3.72;;;1.52;;
36009;SDS011;22076;52.182;5.404;2022-08-06T02:55:43;2.85;;;1.58;;
36009;SDS011;22076;52.182;5.404;2022-08-06T02:58:13;6.05;;;1.60;;
36009;SDS011;22076;52.182;5.404;2022-08-06T03:00:44;5.72;;;1.70;;
36009;SDS011;22076;52.182;5.404;2022-08-06T03:03:11;5.32;;;1.77;;
36009;SDS011;22076;52.182;5.404;2022-08-06T03:05:39;3.03;;;1.30;;
36009;SDS011;22076;52.182;5.404;2022-08-06T03:08:10;3.55;;;1.10;;
36009;SDS011;22076;52.182;5.404;2022-08-06T03:10:40;4.47;;;1.83;;
36009;SDS011;22076;52.182;5.404;2022-08-06T03:13:07;4.50;;;1.40;;
36009;SDS011;22076;52.182;5.404;2022-08-06T03:15:35;6.95;;;1.85;;
36009;SDS011;22076;52.182;5.404;2022-08-06T03:18:02;5.00;;;1.25;;
36009;SDS011;22076;52.182;5.404;2022-08-06T03:20:30;7.15;;;1.80;;
36009;SDS011;22076;52.182;5.404;2022-08-06T03:23:00;3.55;;;1.27;;
36009;SDS011;22076;52.182;5.404;2022-08-06T03:25:29;4.00;;;1.80;;
36009;SDS011;22076;52.182;5.404;2022-08-06T03:27:56;4.68;;;1.77;;
36009;SDS011;22076;52.182;5.404;2022-08-06T03:30:24;3.42;;;1.45;;
36009;SDS011;22076;52.182;5.404;2022-08-06T03:32:51;4.68;;;1.60;;
36009;SDS011;22076;52.182;5.404;2022-08-06T03:35:19;3.08;;;1.50;;
36009;SDS011;22076;52.182;5.404;2022-08-06T03:37:47;4.22;;;1.30;;
36009;SDS011;22076;52.182;5.404;2022-08-06T03:40:16;2.55;;;1.30;;
36009;SDS011;22076;52.182;5.404;2022-08-06T03:42:43;2.65;;;1.42;;
36009;SDS011;22076;52.182;5.404;2022-08-06T03:45:10;4.38;;;1.23;;
36009;SDS011;22076;52.182;5.404;2022-08-06T03:47:40;4.90;;;1.45;;
36009;SDS011;22076;52.182;5.404;2022-08-06T03:50:09;3.35;;;1.08;;
36009;SDS011;22076;52.182;5.404;2022-08-06T03:52:38;4.65;;;1.50;;
36009;SDS011;22076;52.182;5.404;2022-08-06T03:55:06;3.53;;;1.20;;
36009;SDS011;22076;52.182;5.404;2022-08-06T03:57:38;3.22;;;1.20;;
36009;SDS011;22076;52.182;5.404;2022-08-06T04:00:07;3.00;;;1.33;;
36009;SDS011;22076;52.182;5.404;2022-08-06T04:02:36;3.22;;;1.17;;
36009;SDS011;22076;52.182;5.404;2022-08-06T04:05:04;3.75;;;1.30;;
36009;SDS011;22076;52.182;5.404;2022-08-06T04:07:33;1.25;;;1.08;;
36009;SDS011;22076;52.182;5.404;2022-08-06T04:10:00;4.28;;;1.63;;
36009;SDS011;22076;52.182;5.404;2022-08-06T04:12:27;3.47;;;1.48;;
36009;SDS011;22076;52.182;5.404;2022-08-06T04:14:56;2.60;;;1.25;;
36009;SDS011;22076;52.182;5.404;2022-08-06T04:17:22;3.65;;;1.70;;
36009;SDS011;22076;52.182;5.404;2022-08-06T04:19:49;3.42;;;1.30;;
36009;SDS011;22076;52.182;5.404;2022-08-06T04:22:17;3.03;;;1.65;;
36009;SDS011;22076;52.182;5.404;2022-08-06T04:24:44;3.78;;;1.33;;
36009;SDS011;22076;52.182;5.404;2022-08-06T04:27:12;3.28;;;1.65;;
36009;SDS011;22076;52.182;5.404;2022-08-06T04:29:39;3.90;;;1.77;;
36009;SDS011;22076;52.182;5.404;2022-08-06T04:32:08;3.67;;;1.20;;
36009;SDS011;22076;52.182;5.404;2022-08-06T04:34:36;6.18;;;1.30;;
36009;SDS011;22076;52.182;5.404;2022-08-06T04:37:05;4.68;;;1.60;;
36009;SDS011;22076;52.182;5.404;2022-08-06T04:39:32;2.83;;;0.90;;
36009;SDS011;22076;52.182;5.404;2022-08-06T04:41:59;4.22;;;1.55;;
36009;SDS011;22076;52.182;5.404;2022-08-06T04:44:26;2.17;;;1.40;;
36009;SDS011;22076;52.182;5.404;2022-08-06T04:46:53;4.90;;;1.30;;
36009;SDS011;22076;52.182;5.404;2022-08-06T04:49:22;3.05;;;1.35;;
36009;SDS011;22076;52.182;5.404;2022-08-06T04:51:49;3.83;;;1.38;;
36009;SDS011;22076;52.182;5.404;2022-08-06T04:54:16;4.88;;;1.33;;
36009;SDS011;22076;52.182;5.404;2022-08-06T04:56:43;2.58;;;1.33;;
36009;SDS011;22076;52.182;5.404;2022-08-06T04:59:11;4.47;;;1.45;;
36009;SDS011;22076;52.182;5.404;2022-08-06T05:01:37;6.85;;;1.45;;
36009;SDS011;22076;52.182;5.404;2022-08-06T05:04:04;5.20;;;1.40;;
36009;SDS011;22076;52.182;5.404;2022-08-06T05:06:35;1.95;;;1.20;;
36009;SDS011;22076;52.182;5.404;2022-08-06T05:09:08;3.45;;;1.00;;
36009;SDS011;22076;52.182;5.404;2022-08-06T05:11:42;3.05;;;1.10;;
36009;SDS011;22076;52.182;5.404;2022-08-06T05:14:13;1.85;;;0.85;;
36009;SDS011;22076;52.182;5.404;2022-08-06T05:16:43;6.25;;;1.27;;
36009;SDS011;22076;52.182;5.404;2022-08-06T05:19:11;3.63;;;1.30;;
36009;SDS011;22076;52.182;5.404;2022-08-06T05:21:44;2.03;;;0.93;;
36009;SDS011;22076;52.182;5.404;2022-08-06T05:24:13;4.85;;;1.20;;
36009;SDS011;22076;52.182;5.404;2022-08-06T05:26:39;4.18;;;1.20;;
36009;SDS011;22076;52.182;5.404;2022-08-06T05:29:06;3.88;;;1.20;;
36009;SDS011;22076;52.182;5.404;2022-08-06T05:31:34;2.17;;;1.00;;
36009;SDS011;22076;52.182;5.404;2022-08-06T05:34:01;5.68;;;1.35;;
36009;SDS011;22076;52.182;5.404;2022-08-06T05:36:27;4.05;;;1.10;;
36009;SDS011;22076;52.182;5.404;2022-08-06T05:38:56;3.30;;;0.90;;
36009;SDS011;22076;52.182;5.404;2022-08-06T05:41:22;6.15;;;1.63;;
36009;SDS011;22076;52.182;5.404;2022-08-06T05:43:49;3.05;;;1.30;;
36009;SDS011;22076;52.182;5.404;2022-08-06T05:46:16;5.63;;;1.67;;
36009;SDS011;22076;52.182;5.404;2022-08-06T05:48:45;2.50;;;1.00;;
36009;SDS011;22076;52.182;5.404;2022-08-06T05:51:17;2.83;;;1.20;;
36009;SDS011;22076;52.182;5.404;2022-08-06T05:53:47;3.58;;;1.00;;
36009;SDS011;22076;52.182;5.404;2022-08-06T05:56:17;7.57;;;1.40;;
36009;SDS011;22076;52.182;5.404;2022-08-06T05:58:49;2.28;;;0.82;;
36009;SDS011;22076;52.182;5.404;2022-08-06T06:01:19;2.85;;;0.80;;
36009;SDS011;22076;52.182;5.404;2022-08-06T06:03:46;3.58;;;1.67;;
36009;SDS011;22076;52.182;5.404;2022-08-06T06:06:21;3.72;;;1.20;;
36009;SDS011;22076;52.182;5.404;2022-08-06T06:08:54;1.33;;;0.70;;
36009;SDS011;22076;52.182;5.404;2022-08-06T06:11:27;3.83;;;1.02;;
36009;SDS011;22076;52.182;5.404;2022-08-06T06:13:54;4.72;;;1.08;;
36009;SDS011;22076;52.182;5.404;2022-08-06T06:16:23;2.53;;;0.98;;
36009;SDS011;22076;52.182;5.404;2022-08-06T06:19:04;4.80;;;0.88;;
36009;SDS011;22076;52.182;5.404;2022-08-06T06:21:36;1.55;;;0.77;;
36009;SDS011;22076;52.182;5.404;2022-08-06T06:24:13;1.17;;;0.80;;
36009;SDS011;22076;52.182;5.404;2022-08-06T06:26:45;3.28;;;1.00;;
36009;SDS011;22076;52.182;5.404;2022-08-06T06:29:15;4.53;;;1.17;;
36009;SDS011;22076;52.182;5.404;2022-08-06T06:31:54;1.55;;;0.82;;
36009;SDS011;22076;52.182;5.404;2022-08-06T06:34:28;5.90;;;1.60;;
36009;SDS011;22076;52.182;5.404;2022-08-06T06:37:09;2.00;;;0.90;;
36009;SDS011;22076;52.182;5.404;2022-08-06T06:39:44;1.95;;;0.60;;
36009;SDS011;22076;52.182;5.404;2022-08-06T06:42:17;2.17;;;0.68;;
36009;SDS011;22076;52.182;5.404;2022-08-06T06:44:48;0.95;;;0.50;;
36009;SDS011;22076;52.182;5.404;2022-08-06T06:47:18;1.42;;;0.77;;
36009;SDS011;22076;52.182;5.404;2022-08-06T06:49:49;1.77;;;1.02;;
36009;SDS011;22076;52.182;5.404;2022-08-06T06:52:18;1.75;;;0.80;;
36009;SDS011;22076;52.182;5.404;2022-08-06T06:54:54;2.30;;;0.70;;
36009;SDS011;22076;52.182;5.404;2022-08-06T06:57:25;2.05;;;0.70;;
36009;SDS011;22076;52.182;5.404;2022-08-06T06:59:56;2.63;;;0.90;;
36009;SDS011;22076;52.182;5.404;2022-08-06T07:02:27;1.90;;;0.70;;
36009;SDS011;22076;52.182;5.404;2022-08-06T07:04:56;5.18;;;1.05;;
36009;SDS011;22076;52.182;5.404;2022-08-06T07:07:27;3.83;;;0.98;;
36009;SDS011;22076;52.182;5.404;2022-08-06T07:09:56;1.33;;;0.70;;
36009;SDS011;22076;52.182;5.404;2022-08-06T07:12:24;1.30;;;0.65;;
36009;SDS011;22076;52.182;5.404;2022-08-06T07:14:55;1.42;;;0.80;;
36009;SDS011;22076;52.182;5.404;2022-08-06T07:17:23;3.50;;;0.98;;
36009;SDS011;22076;52.182;5.404;2022-08-06T07:19:51;3.42;;;0.80;;
36009;SDS011;22076;52.182;5.404;2022-08-06T07:22:22;4.97;;;0.90;;
36009;SDS011;22076;52.182;5.404;2022-08-06T07:24:51;3.15;;;0.70;;
36009;SDS011;22076;52.182;5.404;2022-08-06T07:27:20;2.17;;;0.80;;
36009;SDS011;22076;52.182;5.404;2022-08-06T07:29:48;2.75;;;0.77;;
36009;SDS011;22076;52.182;5.404;2022-08-06T07:32:15;2.17;;;0.65;;
36009;SDS011;22076;52.182;5.404;2022-08-06T07:34:42;3.05;;;0.75;;
36009;SDS011;22076;52.182;5.404;2022-08-06T07:37:09;1.17;;;0.60;;
36009;SDS011;22076;52.182;5.404;2022-08-06T07:39:37;3.83;;;0.77;;
36009;SDS011;22076;52.182;5.404;2022-08-06T07:42:06;2.25;;;1.15;;
36009;SDS011;22076;52.182;5.404;2022-08-06T07:44:37;2.05;;;0.90;;
36009;SDS011;22076;52.182;5.404;2022-08-06T07:47:07;5.07;;;1.02;;
36009;SDS011;22076;52.182;5.404;2022-08-06T07:49:35;2.50;;;1.05;;
36009;SDS011;22076;52.182;5.404;2022-08-06T07:52:02;2.67;;;0.88;;
36009;SDS011;22076;52.182;5.404;2022-08-06T07:54:32;1.45;;;0.60;;
36009;SDS011;22076;52.182;5.404;2022-08-06T07:57:08;1.70;;;0.80;;
36009;SDS011;22076;52.182;5.404;2022-08-06T07:59:37;3.33;;;0.90;;
36009;SDS011;22076;52.182;5.404;2022-08-06T08:02:06;1.83;;;0.80;;
36009;SDS011;22076;52.182;5.404;2022-08-06T08:04:35;3.90;;;0.95;;
36009;SDS011;22076;52.182;5.404;2022-08-06T08:07:31;1.77;;;0.70;;
36009;SDS011;22076;52.182;5.404;2022-08-06T08:09:58;4.47;;;0.98;;
36009;SDS011;22076;52.182;5.404;2022-08-06T08:12:30;3.42;;;0.75;;
36009;SDS011;22076;52.182;5.404;2022-08-06T08:14:58;3.45;;;1.00;;
36009;SDS011;22076;52.182;5.404;2022-08-06T08:17:26;1.77;;;0.68;;
36009;SDS011;22076;52.182;5.404;2022-08-06T08:19:53;2.40;;;0.70;;
36009;SDS011;22076;52.182;5.404;2022-08-06T08:22:25;1.27;;;0.70;;
36009;SDS011;22076;52.182;5.404;2022-08-06T08:24:52;1.83;;;0.70;;
36009;SDS011;22076;52.182;5.404;2022-08-06T08:27:20;3.22;;;0.60;;
36009;SDS011;22076;52.182;5.404;2022-08-06T08:29:47;3.63;;;0.93;;
36009;SDS011;22076;52.182;5.404;2022-08-06T08:32:15;1.77;;;0.93;;
36009;SDS011;22076;52.182;5.404;2022-08-06T08:34:44;1.63;;;0.82;;
36009;SDS011;22076;52.182;5.404;2022-08-06T08:37:10;1.70;;;0.70;;
36009;SDS011;22076;52.182;5.404;2022-08-06T08:39:37;3.35;;;0.70;;
36009;SDS011;22076;52.182;5.404;2022-08-06T08:42:04;1.67;;;0.50;;
36009;SDS011;22076;52.182;5.404;2022-08-06T08:44:36;1.95;;;0.57;;
36009;SDS011;22076;52.182;5.404;2022-08-06T08:47:03;0.90;;;0.70;;
36009;SDS011;22076;52.182;5.404;2022-08-06T08:49:34;3.22;;;0.90;;
36009;SDS011;22076;52.182;5.404;2022-08-06T08:52:15;3.60;;;1.05;;
36009;SDS011;22076;52.182;5.404;2022-08-06T08:54:45;2.22;;;0.80;;
36009;SDS011;22076;52.182;5.404;2022-08-06T08:57:14;2.90;;;0.68;;
36009;SDS011;22076;52.182;5.404;2022-08-06T08:59:41;3.33;;;0.77;;
36009;SDS011;22076;52.182;5.404;2022-08-06T09:02:09;1.38;;;0.77;;
36009;SDS011;22076;52.182;5.404;2022-08-06T09:04:38;1.00;;;0.73;;
36009;SDS011;22076;52.182;5.404;2022-08-06T09:07:05;2.70;;;0.60;;
36009;SDS011;22076;52.182;5.404;2022-08-06T09:09:36;1.77;;;0.68;;
36009;SDS011;22076;52.182;5.404;2022-08-06T09:12:04;2.50;;;0.55;;
36009;SDS011;22076;52.182;5.404;2022-08-06T09:14:33;0.98;;;0.47;;
36009;SDS011;22076;52.182;5.404;2022-08-06T09:17:02;1.95;;;0.70;;
36009;SDS011;22076;52.182;5.404;2022-08-06T09:19:29;1.52;;;0.65;;
36009;SDS011;22076;52.182;5.404;2022-08-06T09:21:56;1.95;;;0.75;;
36009;SDS011;22076;52.182;5.404;2022-08-06T09:24:24;2.05;;;0.60;;
36009;SDS011;22076;52.182;5.404;2022-08-06T09:27:05;1.08;;;0.52;;
36009;SDS011;22076;52.182;5.404;2022-08-06T09:29:32;4.10;;;0.80;;
36009;SDS011;22076;52.182;5.404;2022-08-06T09:32:00;1.85;;;0.50;;
36009;SDS011;22076;52.182;5.404;2022-08-06T09:34:32;2.00;;;0.68;;
36009;SDS011;22076;52.182;5.404;2022-08-06T09:36:59;0.77;;;0.40;;
36009;SDS011;22076;52.182;5.404;2022-08-06T09:39:34;1.27;;;0.63;;
36009;SDS011;22076;52.182;5.404;2022-08-06T09:42:06;1.13;;;0.40;;
36009;SDS011;22076;52.182;5.404;2022-08-06T09:44:33;2.45;;;0.60;;
36009;SDS011;22076;52.182;5.404;2022-08-06T09:47:00;2.95;;;0.57;;
36009;SDS011;22076;52.182;5.404;2022-08-06T09:49:26;1.42;;;0.70;;
36009;SDS011;22076;52.182;5.404;2022-08-06T09:52:10;2.35;;;0.60;;
36009;SDS011;22076;52.182;5.404;2022-08-06T09:54:40;2.13;;;0.60;;
36009;SDS011;22076;52.182;5.404;2022-08-06T09:57:08;1.95;;;0.80;;
36009;SDS011;22076;52.182;5.404;2022-08-06T09:59:41;2.92;;;0.60;;
36009;SDS011;22076;52.182;5.404;2022-08-06T10:02:11;2.13;;;0.80;;
36009;SDS011;22076;52.182;5.404;2022-08-06T10:04:39;0.80;;;0.60;;
36009;SDS011;22076;52.182;5.404;2022-08-06T10:07:05;1.38;;;0.68;;
36009;SDS011;22076;52.182;5.404;2022-08-06T10:09:32;0.65;;;0.50;;
36009;SDS011;22076;52.182;5.404;2022-08-06T10:12:00;0.63;;;0.50;;
36009;SDS011;22076;52.182;5.404;2022-08-06T10:14:28;1.25;;;0.65;;
36009;SDS011;22076;52.182;5.404;2022-08-06T10:17:03;1.63;;;0.60;;
36009;SDS011;22076;52.182;5.404;2022-08-06T10:19:30;0.63;;;0.40;;
36009;SDS011;22076;52.182;5.404;2022-08-06T10:22:02;1.27;;;0.50;;
36009;SDS011;22076;52.182;5.404;2022-08-06T10:24:29;0.88;;;0.57;;
36009;SDS011;22076;52.182;5.404;2022-08-06T10:26:56;0.80;;;0.60;;
36009;SDS011;22076;52.182;5.404;2022-08-06T10:29:23;2.40;;;0.73;;
36009;SDS011;22076;52.182;5.404;2022-08-06T10:31:53;1.02;;;0.55;;
36009;SDS011;22076;52.182;5.404;2022-08-06T10:34:20;1.25;;;0.57;;
36009;SDS011;22076;52.182;5.404;2022-08-06T10:36:51;0.88;;;0.70;;
36009;SDS011;22076;52.182;5.404;2022-08-06T10:39:21;1.02;;;0.60;;
36009;SDS011;22076;52.182;5.404;2022-08-06T10:41:52;1.20;;;0.70;;
36009;SDS011;22076;52.182;5.404;2022-08-06T10:44:20;1.02;;;0.70;;
36009;SDS011;22076;52.182;5.404;2022-08-06T10:46:48;1.63;;;0.82;;
36009;SDS011;22076;52.182;5.404;2022-08-06T10:49:17;1.40;;;0.95;;
36009;SDS011;22076;52.182;5.404;2022-08-06T10:51:45;0.80;;;0.60;;
36009;SDS011;22076;52.182;5.404;2022-08-06T10:54:12;0.98;;;0.70;;
36009;SDS011;22076;52.182;5.404;2022-08-06T10:56:39;1.95;;;1.00;;
36009;SDS011;22076;52.182;5.404;2022-08-06T10:59:06;1.58;;;0.82;;
36009;SDS011;22076;52.182;5.404;2022-08-06T11:01:34;0.98;;;0.70;;
36009;SDS011;22076;52.182;5.404;2022-08-06T11:04:14;3.30;;;0.65;;
36009;SDS011;22076;52.182;5.404;2022-08-06T11:09:47;2.40;;;0.80;;
36009;SDS011;22076;52.182;5.404;2022-08-06T11:12:36;0.82;;;0.60;;
36009;SDS011;22076;52.182;5.404;2022-08-06T11:15:08;2.03;;;0.75;;
36009;SDS011;22076;52.182;5.404;2022-08-06T11:17:41;1.75;;;0.88;;
36009;SDS011;22076;52.182;5.404;2022-08-06T11:20:11;2.47;;;0.80;;
36009;SDS011;22076;52.182;5.404;2022-08-06T11:23:02;1.83;;;0.90;;
36009;SDS011;22076;52.182;5.404;2022-08-06T11:25:37;1.52;;;0.90;;
36009;SDS011;22076;52.182;5.404;2022-08-06T11:28:04;1.30;;;0.80;;
36009;SDS011;22076;52.182;5.404;2022-08-06T11:30:36;1.80;;;0.98;;
36009;SDS011;22076;52.182;5.404;2022-08-06T11:33:04;3.63;;;0.90;;
36009;SDS011;22076;52.182;5.404;2022-08-06T11:35:39;2.60;;;0.88;;
36009;SDS011;22076;52.182;5.404;2022-08-06T11:38:09;1.23;;;0.85;;
36009;SDS011;22076;52.182;5.404;2022-08-06T11:40:55;1.48;;;1.00;;
36009;SDS011;22076;52.182;5.404;2022-08-06T11:46:21;2.83;;;0.95;;
36009;SDS011;22076;52.182;5.404;2022-08-06T11:51:50;1.30;;;0.80;;
36009;SDS011;22076;52.182;5.404;2022-08-06T11:54:18;1.88;;;0.70;;
36009;SDS011;22076;52.182;5.404;2022-08-06T12:00:00;0.82;;;0.77;;
36009;SDS011;22076;52.182;5.404;2022-08-06T12:05:31;0.80;;;0.50;;
36009;SDS011;22076;52.182;5.404;2022-08-06T12:08:20;2.00;;;0.80;;
36009;SDS011;22076;52.182;5.404;2022-08-06T12:13:56;1.42;;;0.75;;
36009;SDS011;22076;52.182;5.404;2022-08-06T12:16:30;1.30;;;0.88;;
36009;SDS011;22076;52.182;5.404;2022-08-06T12:18:59;1.52;;;0.80;;
36009;SDS011;22076;52.182;5.404;2022-08-06T12:21:26;2.08;;;0.80;;
36009;SDS011;22076;52.182;5.404;2022-08-06T12:23:54;1.33;;;0.82;;
36009;SDS011;22076;52.182;5.404;2022-08-06T12:26:21;1.00;;;0.70;;
36009;SDS011;22076;52.182;5.404;2022-08-06T12:28:48;2.60;;;0.85;;
36009;SDS011;22076;52.182;5.404;2022-08-06T12:33:58;1.98;;;0.82;;
36009;SDS011;22076;52.182;5.404;2022-08-06T12:36:25;1.30;;;0.80;;
36009;SDS011;22076;52.182;5.404;2022-08-06T12:38:56;1.00;;;0.60;;
36009;SDS011;22076;52.182;5.404;2022-08-06T12:41:30;1.13;;;0.70;;
36009;SDS011;22076;52.182;5.404;2022-08-06T12:43:58;1.95;;;0.70;;
36009;SDS011;22076;52.182;5.404;2022-08-06T12:46:25;2.88;;;0.60;;
36009;SDS011;22076;52.182;5.404;2022-08-06T12:48:51;1.23;;;0.85;;
36009;SDS011;22076;52.182;5.404;2022-08-06T12:51:19;1.48;;;0.77;;
36009;SDS011;22076;52.182;5.404;2022-08-06T12:53:47;1.98;;;0.70;;
36009;SDS011;22076;52.182;5.404;2022-08-06T12:56:16;3.03;;;0.80;;
36009;SDS011;22076;52.182;5.404;2022-08-06T12:58:43;1.10;;;0.75;;
36009;SDS011;22076;52.182;5.404;2022-08-06T13:01:10;2.92;;;0.77;;
36009;SDS011;22076;52.182;5.404;2022-08-06T13:03:39;0.80;;;0.60;;
36009;SDS011;22076;52.182;5.404;2022-08-06T13:06:08;1.90;;;0.80;;
36009;SDS011;22076;52.182;5.404;2022-08-06T13:08:38;1.48;;;0.80;;
36009;SDS011;22076;52.182;5.404;2022-08-06T13:11:05;1.10;;;0.80;;
36009;SDS011;22076;52.182;5.404;2022-08-06T13:13:37;1.85;;;0.70;;
36009;SDS011;22076;52.182;5.404;2022-08-06T13:16:06;1.15;;;0.70;;
36009;SDS011;22076;52.182;5.404;2022-08-06T13:18:34;1.13;;;0.70;;
36009;SDS011;22076;52.182;5.404;2022-08-06T13:21:01;1.25;;;0.73;;
36009;SDS011;22076;52.182;5.404;2022-08-06T13:23:29;1.88;;;0.77;;
36009;SDS011;22076;52.182;5.404;2022-08-06T13:25:57;1.00;;;0.60;;
36009;SDS011;22076;52.182;5.404;2022-08-06T13:28:24;1.23;;;0.80;;
36009;SDS011;22076;52.182;5.404;2022-08-06T13:30:52;1.25;;;0.88;;
36009;SDS011;22076;52.182;5.404;2022-08-06T13:33:22;0.93;;;0.80;;
36009;SDS011;22076;52.182;5.404;2022-08-06T13:35:50;2.83;;;0.88;;
36009;SDS011;22076;52.182;5.404;2022-08-06T13:38:25;1.10;;;0.90;;
36009;SDS011;22076;52.182;5.404;2022-08-06T13:40:52;1.05;;;0.68;;
36009;SDS011;22076;52.182;5.404;2022-08-06T13:43:19;1.08;;;0.98;;
36009;SDS011;22076;52.182;5.404;2022-08-06T13:45:46;1.20;;;0.73;;
36009;SDS011;22076;52.182;5.404;2022-08-06T13:48:14;2.58;;;0.80;;
36009;SDS011;22076;52.182;5.404;2022-08-06T13:50:42;5.28;;;0.85;;
36009;SDS011;22076;52.182;5.404;2022-08-06T13:53:10;1.88;;;0.90;;
36009;SDS011;22076;52.182;5.404;2022-08-06T13:55:39;0.95;;;0.73;;
36009;SDS011;22076;52.182;5.404;2022-08-06T13:58:08;2.28;;;0.93;;
36009;SDS011;22076;52.182;5.404;2022-08-06T14:00:35;2.13;;;0.90;;
36009;SDS011;22076;52.182;5.404;2022-08-06T14:03:03;4.15;;;1.20;;
36009;SDS011;22076;52.182;5.404;2022-08-06T14:05:31;1.63;;;1.00;;
36009;SDS011;22076;52.182;5.404;2022-08-06T14:07:58;2.10;;;1.20;;
36009;SDS011;22076;52.182;5.404;2022-08-06T14:10:24;2.05;;;1.10;;
36009;SDS011;22076;52.182;5.404;2022-08-06T14:12:51;1.70;;;0.82;;
36009;SDS011;22076;52.182;5.404;2022-08-06T14:15:36;1.60;;;0.82;;
36009;SDS011;22076;52.182;5.404;2022-08-06T14:18:02;1.70;;;0.90;;
36009;SDS011;22076;52.182;5.404;2022-08-06T14:20:29;1.85;;;1.00;;
36009;SDS011;22076;52.182;5.404;2022-08-06T14:22:58;1.45;;;1.08;;
36009;SDS011;22076;52.182;5.404;2022-08-06T14:25:25;1.00;;;0.90;;
36009;SDS011;22076;52.182;5.404;2022-08-06T14:27:52;2.22;;;1.08;;
36009;SDS011;22076;52.182;5.404;2022-08-06T14:30:19;1.83;;;1.10;;
36009;SDS011;22076;52.182;5.404;2022-08-06T14:32:46;1.20;;;1.08;;
36009;SDS011;22076;52.182;5.404;2022-08-06T14:35:13;1.50;;;0.93;;
36009;SDS011;22076;52.182;5.404;2022-08-06T14:37:40;1.70;;;1.13;;
36009;SDS011;22076;52.182;5.404;2022-08-06T14:40:09;2.22;;;0.80;;
36009;SDS011;22076;52.182;5.404;2022-08-06T14:42:37;3.15;;;1.23;;
36009;SDS011;22076;52.182;5.404;2022-08-06T14:45:21;4.13;;;0.93;;
36009;SDS011;22076;52.182;5.404;2022-08-06T14:47:48;1.83;;;1.08;;
36009;SDS011;22076;52.182;5.404;2022-08-06T14:50:14;3.08;;;0.95;;
36009;SDS011;22076;52.182;5.404;2022-08-06T14:52:43;1.77;;;0.93;;
36009;SDS011;22076;52.182;5.404;2022-08-06T14:55:11;1.88;;;0.90;;
36009;SDS011;22076;52.182;5.404;2022-08-06T14:57:39;1.77;;;1.05;;
36009;SDS011;22076;52.182;5.404;2022-08-06T15:00:06;2.17;;;1.17;;
36009;SDS011;22076;52.182;5.404;2022-08-06T15:02:34;2.35;;;1.10;;
36009;SDS011;22076;52.182;5.404;2022-08-06T15:05:04;2.65;;;1.08;;
36009;SDS011;22076;52.182;5.404;2022-08-06T15:07:30;1.50;;;0.90;;
36009;SDS011;22076;52.182;5.404;2022-08-06T15:09:59;1.73;;;1.30;;
36009;SDS011;22076;52.182;5.404;2022-08-06T15:12:27;1.55;;;1.20;;
36009;SDS011;22076;52.182;5.404;2022-08-06T15:14:54;2.05;;;1.48;;
36009;SDS011;22076;52.182;5.404;2022-08-06T15:17:21;2.35;;;1.20;;
36009;SDS011;22076;52.182;5.404;2022-08-06T15:19:48;1.23;;;1.10;;
36009;SDS011;22076;52.182;5.404;2022-08-06T15:22:14;3.42;;;1.13;;